Terminal Aerodrome Forecast
Issued by NWS Upton, NY

Home | Current Version | Previous Version | Text Only | Print | Product List | Glossary On
Versions: 1 2 3 4 5 6 7 8 9 10 11 12 13 14 15 16 17 18 19 20 21 22 23 24 25 26 27 28 29 30 31
000
FTUS41 KOKX 011134
TAFEWR
TAF
KEWR 011134Z 0112/0218 VRB06KT P6SM VCSH SCT050 BKN100
     FM011300 22006KT P6SM -SHRA VCTS BKN050CB
     FM011500 24010G18KT P6SM BKN050
     FM011800 24015G22KT P6SM BKN050
     FM020100 27011KT P6SM BKN050
     FM020600 32006KT P6SM SCT050 BKN250=

USA.gov is the U.S. government's official web portal to all federal, state and local government web resources and services.